Time;durP1;ratioP1;P1;durP2;ratioP2;P2;SDS_P1;SDS_P2;PMS_P1;PMS_P2;Temp;Humidity;BMP_temperature;BMP_pressure;BME280_temperature;BME280_humidity;BME280_pressure;Samples;Min_cycle;Max_cycle;Signal;HPM_P1;HPM_P2
2020/12/02 00:01:04;;;;;;;22.95;14.85;;;8.10;99.90;;;;;;5115122;28;20200;-77
2020/12/02 00:03:37;;;;;;;22.83;15.47;;;8.00;99.90;;;;;;5113151;28;20628;-76
2020/12/02 00:06:05;;;;;;;21.10;13.85;;;8.20;99.90;;;;;;5098737;28;20758;-75
2020/12/02 00:08:35;;;;;;;23.80;16.73;;;8.10;99.90;;;;;;5094221;28;20202;-77
2020/12/02 00:11:07;;;;;;;27.20;16.83;;;8.00;99.90;;;;;;5096238;28;20202;-74
2020/12/02 00:13:39;;;;;;;21.97;15.93;;;8.00;99.90;;;;;;5100219;28;20194;-75
2020/12/02 00:16:08;;;;;;;22.47;15.13;;;8.00;99.90;;;;;;5100759;28;20194;-74
2020/12/02 00:18:35;;;;;;;27.03;16.10;;;8.00;99.90;;;;;;5096732;28;20222;-75
2020/12/02 00:21:04;;;;;;;21.67;15.73;;;8.00;99.90;;;;;;5099540;28;20206;-75
2020/12/02 00:23:31;;;;;;;25.07;15.63;;;8.00;99.90;;;;;;5097608;28;20202;-74
2020/12/02 00:25:57;;;;;;;23.63;16.03;;;8.00;99.90;;;;;;5094301;28;20208;-75
2020/12/02 00:28:23;;;;;;;22.98;16.75;;;8.00;99.90;;;;;;5094339;28;20208;-75
2020/12/02 00:30:50;;;;;;;22.52;15.32;;;8.00;99.90;;;;;;5094316;28;20209;-75
2020/12/02 00:33:20;;;;;;;21.30;15.93;;;8.00;99.90;;;;;;5102808;28;20201;-76
2020/12/02 00:35:47;;;;;;;22.17;15.63;;;8.00;99.90;;;;;;5099040;28;20208;-75
2020/12/02 00:38:15;;;;;;;24.63;15.50;;;8.10;99.90;;;;;;5096085;28;20222;-75
2020/12/02 00:40:44;;;;;;;21.45;15.52;;;8.00;99.90;;;;;;5096301;28;20202;-75
2020/12/02 00:43:11;;;;;;;23.75;16.33;;;8.00;99.90;;;;;;5094003;28;20615;-75
2020/12/02 00:45:38;;;;;;;24.08;16.85;;;8.00;99.90;;;;;;5098597;28;20204;-75
2020/12/02 00:48:10;;;;;;;25.70;15.70;;;8.00;99.90;;;;;;5098389;28;20209;-75
2020/12/02 00:50:37;;;;;;;24.63;16.95;;;8.00;99.90;;;;;;5093967;28;20197;-76
2020/12/02 00:53:06;;;;;;;25.67;17.10;;;8.00;99.90;;;;;;5093816;28;20198;-75
2020/12/02 00:55:32;;;;;;;23.58;16.25;;;8.10;99.90;;;;;;5089948;28;20198;-76
2020/12/02 00:58:01;;;;;;;24.50;15.93;;;8.10;99.90;;;;;;5093483;28;20222;-75
2020/12/02 01:00:30;;;;;;;28.77;16.90;;;8.00;99.90;;;;;;5105660;28;20212;-76
2020/12/02 01:03:06;;;;;;;25.17;16.00;;;8.00;99.90;;;;;;5114049;28;20296;-74
2020/12/02 01:05:33;;;;;;;23.37;15.80;;;8.00;99.90;;;;;;5114103;28;20200;-75
2020/12/02 01:08:19;;;;;;;24.17;16.45;;;7.90;99.90;;;;;;5113628;28;20318;-75
2020/12/02 01:10:48;;;;;;;23.52;16.30;;;7.90;99.90;;;;;;5114041;28;20197;-75
2020/12/02 01:13:14;;;;;;;22.73;16.25;;;8.00;99.90;;;;;;5080233;28;20328;-75
2020/12/02 01:15:41;;;;;;;21.92;15.35;;;8.00;99.90;;;;;;5105842;28;20580;-74
2020/12/02 01:18:13;;;;;;;21.57;15.33;;;7.90;99.90;;;;;;5094694;28;20222;-76
2020/12/02 01:20:39;;;;;;;22.03;16.37;;;8.00;99.90;;;;;;5105531;28;20190;-77
2020/12/02 01:23:06;;;;;;;24.53;16.97;;;8.00;99.90;;;;;;5109810;28;20194;-75
2020/12/02 01:25:33;;;;;;;19.70;15.90;;;7.90;99.90;;;;;;5092603;28;20656;-75
2020/12/02 01:28:05;;;;;;;22.85;17.02;;;8.00;99.90;;;;;;5099715;28;20203;-75
2020/12/02 01:30:32;;;;;;;27.00;17.90;;;7.90;99.90;;;;;;5114046;28;20235;-75
2020/12/02 01:32:59;;;;;;;23.93;17.27;;;7.90;99.90;;;;;;5113889;28;20209;-76
2020/12/02 01:35:29;;;;;;;24.60;16.03;;;7.90;99.90;;;;;;5106244;28;20198;-75
2020/12/02 01:37:59;;;;;;;23.37;17.30;;;7.90;99.90;;;;;;5106872;28;20232;-74
2020/12/02 01:40:27;;;;;;;22.70;16.40;;;8.00;99.90;;;;;;5113262;28;20190;-75
2020/12/02 01:43:00;;;;;;;27.75;16.20;;;7.90;99.90;;;;;;5113566;28;20205;-74
2020/12/02 01:45:28;;;;;;;23.45;15.73;;;8.00;99.90;;;;;;5107177;28;20225;-74
2020/12/02 01:48:15;;;;;;;27.85;16.48;;;7.90;99.90;;;;;;5104991;28;20217;-75
2020/12/02 01:50:45;;;;;;;24.58;16.40;;;7.90;99.90;;;;;;5086240;28;20201;-75
2020/12/02 01:53:20;;;;;;;22.27;16.27;;;7.90;99.90;;;;;;5113187;28;20201;-74
2020/12/02 01:55:52;;;;;;;21.88;16.85;;;7.90;99.90;;;;;;5106526;28;20193;-74
2020/12/02 01:58:28;;;;;;;23.70;17.00;;;7.90;99.90;;;;;;5106302;28;20221;-74
2020/12/02 02:01:05;;;;;;;27.17;17.73;;;7.90;99.90;;;;;;5112954;28;20197;-74
2020/12/02 02:03:36;;;;;;;21.65;16.33;;;7.90;99.90;;;;;;5113213;28;20545;-75
2020/12/02 02:06:07;;;;;;;21.43;16.90;;;7.90;99.90;;;;;;5103999;28;20259;-75
2020/12/02 02:08:35;;;;;;;25.13;15.93;;;7.90;99.90;;;;;;5103558;28;20667;-75
2020/12/02 02:11:05;;;;;;;22.85;16.88;;;7.80;99.90;;;;;;5103631;28;20325;-77
2020/12/02 02:14:13;;;;;;;25.13;16.80;;;7.90;99.90;;;;;;5113011;28;20197;-75
2020/12/02 02:16:43;;;;;;;20.98;15.80;;;7.80;99.90;;;;;;5107876;28;20654;-75
2020/12/02 02:19:18;;;;;;;29.27;17.40;;;7.90;99.90;;;;;;5103733;28;20564;-75
2020/12/02 02:21:46;;;;;;;26.07;17.13;;;7.80;99.90;;;;;;5112770;28;20197;-75
2020/12/02 02:24:13;;;;;;;24.60;17.10;;;7.80;99.90;;;;;;5112692;28;20203;-74
2020/12/02 02:26:41;;;;;;;26.10;17.87;;;7.80;99.90;;;;;;5097444;28;20198;-75
2020/12/02 02:29:13;;;;;;;23.73;17.40;;;7.80;99.90;;;;;;5105839;28;20214;-75
2020/12/02 02:31:50;;;;;;;20.80;15.45;;;7.80;99.90;;;;;;5102335;28;20297;-76
2020/12/02 02:34:17;;;;;;;28.58;18.15;;;7.80;99.90;;;;;;5107380;28;20198;-75
2020/12/02 02:36:43;;;;;;;23.80;17.20;;;7.80;99.90;;;;;;5110432;28;20664;-74
2020/12/02 02:39:11;;;;;;;27.35;18.10;;;7.80;99.90;;;;;;5104078;28;20217;-75
2020/12/02 02:41:38;;;;;;;22.88;16.15;;;7.80;99.90;;;;;;5115974;28;20198;-75
2020/12/02 02:44:07;;;;;;;26.20;17.90;;;7.80;99.90;;;;;;5102293;28;20648;-75
2020/12/02 02:46:33;;;;;;;25.03;17.37;;;7.80;99.90;;;;;;5116775;28;20201;-75
2020/12/02 02:48:59;;;;;;;23.70;17.60;;;7.70;99.90;;;;;;5116426;28;20201;-77
2020/12/02 02:51:26;;;;;;;24.70;17.00;;;7.80;99.90;;;;;;5106100;28;20332;-75
2020/12/02 02:53:53;;;;;;;24.50;16.43;;;7.80;99.90;;;;;;5112384;28;20207;-75
2020/12/02 02:56:20;;;;;;;26.42;17.38;;;7.80;99.90;;;;;;5116659;28;20205;-75
2020/12/02 02:58:46;;;;;;;25.20;16.70;;;7.80;99.90;;;;;;5101431;28;20222;-76
2020/12/02 03:01:13;;;;;;;22.30;16.67;;;7.80;99.90;;;;;;5102928;28;20193;-75
2020/12/02 03:03:40;;;;;;;24.42;16.85;;;7.80;99.90;;;;;;5116479;28;20204;-75
2020/12/02 03:06:07;;;;;;;23.67;16.83;;;7.80;99.90;;;;;;5101650;28;20204;-75
2020/12/02 03:08:34;;;;;;;21.20;16.10;;;7.80;99.90;;;;;;5116092;28;20197;-77
2020/12/02 03:11:04;;;;;;;24.37;17.07;;;7.80;99.90;;;;;;5101360;28;20222;-76
2020/12/02 03:13:37;;;;;;;29.73;17.77;;;7.80;99.90;;;;;;5116069;28;20205;-76
2020/12/02 03:16:11;;;;;;;23.45;16.95;;;7.80;99.90;;;;;;5115605;28;20193;-76
2020/12/02 03:18:38;;;;;;;25.33;17.38;;;7.80;99.90;;;;;;5115981;28;20217;-75
2020/12/02 03:21:09;;;;;;;21.50;16.27;;;7.80;99.90;;;;;;5100532;28;20198;-75
2020/12/02 03:23:35;;;;;;;22.47;16.80;;;7.70;99.90;;;;;;5103764;28;20202;-75
2020/12/02 03:26:02;;;;;;;24.73;16.50;;;7.80;99.90;;;;;;5115932;28;20212;-76
2020/12/02 03:28:28;;;;;;;22.02;16.30;;;7.80;99.90;;;;;;5109886;28;20200;-75
2020/12/02 03:30:58;;;;;;;21.67;17.00;;;7.80;99.90;;;;;;5107781;28;20200;-75
2020/12/02 03:33:25;;;;;;;23.93;17.00;;;7.80;99.90;;;;;;5101533;28;20201;-75
2020/12/02 03:35:52;;;;;;;23.30;16.50;;;7.70;99.90;;;;;;5115383;28;20201;-75
2020/12/02 03:38:19;;;;;;;24.92;17.52;;;7.80;99.90;;;;;;5114713;28;20231;-76
2020/12/02 03:40:45;;;;;;;28.75;18.58;;;7.80;99.90;;;;;;5105997;28;20198;-75
2020/12/02 03:43:12;;;;;;;22.10;15.68;;;7.80;99.90;;;;;;5110612;28;20232;-75
2020/12/02 03:45:43;;;;;;;23.02;16.48;;;7.80;99.90;;;;;;5115278;28;20190;-75
2020/12/02 03:48:11;;;;;;;22.92;16.13;;;7.80;99.90;;;;;;5115180;28;20205;-76
2020/12/02 03:50:38;;;;;;;23.20;17.17;;;7.80;99.90;;;;;;5114859;28;20204;-75
2020/12/02 03:53:06;;;;;;;20.52;15.55;;;7.80;99.90;;;;;;5102637;28;20202;-75
2020/12/02 03:55:32;;;;;;;21.27;15.93;;;7.70;99.90;;;;;;5108874;28;20198;-76
2020/12/02 03:57:59;;;;;;;23.60;16.60;;;7.80;99.90;;;;;;5094875;28;20229;-76
2020/12/02 04:00:25;;;;;;;24.65;17.00;;;7.70;99.90;;;;;;5112233;28;20198;-75
2020/12/02 04:02:52;;;;;;;22.17;16.53;;;8.00;99.90;;;;;;5114932;28;20196;-75
2020/12/02 04:05:19;;;;;;;23.27;16.10;;;7.70;99.90;;;;;;5100484;28;20204;-75
2020/12/02 04:07:45;;;;;;;23.87;16.43;;;7.70;99.90;;;;;;5115042;28;20235;-75
2020/12/02 04:10:12;;;;;;;22.13;17.00;;;7.60;99.90;;;;;;5115146;28;20225;-76
2020/12/02 04:12:39;;;;;;;27.33;17.90;;;7.80;99.90;;;;;;5100472;28;20200;-76
2020/12/02 04:15:05;;;;;;;23.98;16.98;;;7.80;99.90;;;;;;5114572;28;20198;-75
2020/12/02 04:17:32;;;;;;;24.55;17.00;;;7.80;99.90;;;;;;5114562;28;20655;-78
2020/12/02 04:19:59;;;;;;;22.80;16.83;;;7.80;99.90;;;;;;5108265;28;20216;-75
2020/12/02 04:22:25;;;;;;;22.20;16.27;;;7.80;99.90;;;;;;5107158;28;20564;-75
2020/12/02 04:24:52;;;;;;;21.88;16.30;;;7.80;99.90;;;;;;5100231;28;20656;-76
2020/12/02 04:27:19;;;;;;;23.75;17.33;;;7.70;99.90;;;;;;5114760;28;20197;-76
2020/12/02 04:29:46;;;;;;;20.52;15.27;;;7.70;99.90;;;;;;5114240;28;20211;-75
2020/12/02 04:32:12;;;;;;;24.20;18.03;;;7.70;99.90;;;;;;5105558;28;20218;-75
2020/12/02 04:34:38;;;;;;;21.50;16.48;;;7.70;99.90;;;;;;5108476;28;20201;-76
2020/12/02 04:37:04;;;;;;;26.60;16.73;;;7.70;99.90;;;;;;5101244;28;20197;-74
2020/12/02 04:39:31;;;;;;;21.75;16.02;;;7.70;99.90;;;;;;5114164;28;20239;-75
2020/12/02 04:41:57;;;;;;;24.48;17.08;;;7.70;99.90;;;;;;5113958;28;20204;-75
2020/12/02 04:44:25;;;;;;;23.10;16.23;;;7.70;99.90;;;;;;5114030;28;20649;-76
2020/12/02 04:46:55;;;;;;;25.30;15.90;;;7.70;99.90;;;;;;5113826;28;20196;-75
2020/12/02 04:49:24;;;;;;;23.17;16.58;;;7.70;99.90;;;;;;5114305;28;20573;-75
2020/12/02 04:51:56;;;;;;;22.45;16.92;;;7.60;99.90;;;;;;5099567;28;20203;-75
2020/12/02 04:54:22;;;;;;;22.77;16.33;;;7.60;99.90;;;;;;5113949;28;20586;-75
2020/12/02 04:56:49;;;;;;;21.13;16.90;;;7.60;99.90;;;;;;5113779;28;20204;-75
2020/12/02 04:59:15;;;;;;;23.27;16.80;;;7.60;99.90;;;;;;5113705;28;20229;-75
2020/12/02 05:01:52;;;;;;;23.63;17.20;;;7.60;99.90;;;;;;5113814;28;20209;-75
2020/12/02 05:04:21;;;;;;;25.60;17.57;;;7.60;99.90;;;;;;5087867;28;20201;-75
2020/12/02 05:06:49;;;;;;;25.23;17.37;;;7.60;99.90;;;;;;5100142;28;20202;-75
2020/12/02 05:09:19;;;;;;;26.07;17.10;;;7.60;99.90;;;;;;5107574;28;20198;-75
2020/12/02 05:11:58;;;;;;;24.10;17.37;;;7.60;99.90;;;;;;5106296;28;20207;-75
2020/12/02 05:14:31;;;;;;;27.77;18.50;;;7.60;99.90;;;;;;5113291;28;20195;-75
2020/12/02 05:17:17;;;;;;;26.80;17.97;;;7.50;99.90;;;;;;5113553;28;20291;-75
2020/12/02 05:19:44;;;;;;;25.17;18.67;;;7.50;99.90;;;;;;5113136;28;20679;-76
2020/12/02 05:22:14;;;;;;;27.13;19.13;;;7.50;99.90;;;;;;5113342;28;20200;-75
2020/12/02 05:24:47;;;;;;;23.17;17.47;;;7.50;99.90;;;;;;5104389;28;20800;-75
2020/12/02 05:27:18;;;;;;;24.37;17.53;;;7.50;99.90;;;;;;5100313;28;20285;-75
2020/12/02 05:29:50;;;;;;;24.87;19.03;;;7.50;99.90;;;;;;5101103;28;20218;-75
2020/12/02 05:32:20;;;;;;;25.90;18.60;;;7.40;99.90;;;;;;5100778;28;20206;-75
2020/12/02 05:34:47;;;;;;;24.90;17.90;;;7.50;99.90;;;;;;5098455;28;20197;-77
2020/12/02 05:37:24;;;;;;;26.70;18.87;;;7.50;99.90;;;;;;5098994;28;20202;-75
2020/12/02 05:39:55;;;;;;;26.23;18.17;;;7.60;99.90;;;;;;5098273;28;20217;-76
2020/12/02 05:42:28;;;;;;;24.33;17.93;;;7.50;99.90;;;;;;5092787;28;20202;-75
2020/12/02 05:45:01;;;;;;;25.43;18.10;;;7.50;99.90;;;;;;5094473;28;20209;-75
2020/12/02 05:47:28;;;;;;;25.67;17.80;;;7.50;99.90;;;;;;5095986;28;21443;-76
2020/12/02 05:49:57;;;;;;;26.27;17.57;;;7.60;99.90;;;;;;5098949;28;20205;-75
2020/12/02 05:52:26;;;;;;;26.90;18.17;;;7.50;99.90;;;;;;5097469;28;20604;-76
2020/12/02 05:54:57;;;;;;;27.23;19.37;;;7.40;99.90;;;;;;5098449;28;20555;-76
2020/12/02 05:57:23;;;;;;;27.10;18.10;;;7.40;99.90;;;;;;5093120;28;20194;-75
2020/12/02 05:59:55;;;;;;;24.73;18.70;;;7.30;99.90;;;;;;5092956;28;20226;-75
2020/12/02 06:02:21;;;;;;;26.33;19.10;;;7.40;99.90;;;;;;5106638;28;20197;-75
2020/12/02 06:04:53;;;;;;;28.37;19.57;;;7.30;99.90;;;;;;5103144;28;20629;-76
2020/12/02 06:07:21;;;;;;;26.60;19.20;;;7.30;99.90;;;;;;5100528;28;20226;-75
2020/12/02 06:09:49;;;;;;;26.10;19.47;;;7.30;99.90;;;;;;5103733;28;20206;-75
2020/12/02 06:12:19;;;;;;;26.97;18.97;;;7.30;99.90;;;;;;5104684;28;20204;-75
2020/12/02 06:14:46;;;;;;;25.27;19.60;;;7.30;99.90;;;;;;5108439;28;20204;-75
2020/12/02 06:17:26;;;;;;;28.77;20.63;;;7.20;99.90;;;;;;5117079;28;20212;-75
2020/12/02 06:19:53;;;;;;;34.53;22.13;;;7.20;99.90;;;;;;5116824;28;20227;-75
2020/12/02 06:22:47;;;;;;;34.17;22.60;;;7.20;99.90;;;;;;5104999;28;20568;-76
2020/12/02 06:25:51;;;;;;;33.57;21.40;;;7.20;99.90;;;;;;5091358;28;20233;-75
2020/12/02 06:28:47;;;;;;;28.63;20.37;;;7.10;99.90;;;;;;5116441;28;20197;-75
2020/12/02 06:31:21;;;;;;;27.27;19.80;;;7.10;99.90;;;;;;5116662;28;20213;-76
2020/12/02 06:33:48;;;;;;;31.07;20.60;;;7.10;99.90;;;;;;5116910;28;20208;-75
2020/12/02 06:36:23;;;;;;;28.60;20.37;;;7.10;99.90;;;;;;5116411;28;20233;-79
2020/12/02 06:38:52;;;;;;;28.57;20.13;;;7.10;99.90;;;;;;5116730;28;20303;-75
2020/12/02 06:41:32;;;;;;;27.97;19.77;;;7.00;99.90;;;;;;5116750;28;20202;-75
2020/12/02 06:44:32;;;;;;;25.50;19.03;;;7.00;99.90;;;;;;5083703;28;20665;-75
2020/12/02 06:47:07;;;;;;;29.40;20.00;;;7.10;99.90;;;;;;5049233;28;20543;-75
2020/12/02 06:49:36;;;;;;;24.87;17.67;;;7.10;99.90;;;;;;5095920;28;20670;-76
2020/12/02 06:52:07;;;;;;;27.97;18.90;;;7.10;99.90;;;;;;5095681;28;20198;-76
2020/12/02 06:54:36;;;;;;;30.07;20.60;;;7.20;99.90;;;;;;5096119;28;20206;-76
2020/12/02 06:57:07;;;;;;;26.00;19.00;;;7.10;99.90;;;;;;5095976;28;20213;-75
2020/12/02 06:59:47;;;;;;;28.73;20.27;;;7.10;99.90;;;;;;5106320;28;20228;-77
2020/12/02 07:02:26;;;;;;;31.10;19.43;;;7.10;99.90;;;;;;5112312;28;20198;-75
2020/12/02 07:04:54;;;;;;;29.17;18.77;;;7.10;99.90;;;;;;5107719;28;20197;-75
2020/12/02 07:07:21;;;;;;;28.27;19.23;;;7.10;99.90;;;;;;5115945;28;20193;-75
2020/12/02 07:09:48;;;;;;;28.03;18.97;;;7.00;99.90;;;;;;5116218;28;20197;-76
2020/12/02 07:12:17;;;;;;;29.50;19.23;;;7.10;99.90;;;;;;5115011;28;20203;-77
2020/12/02 07:14:44;;;;;;;30.83;18.80;;;7.10;99.90;;;;;;5115272;28;20293;-75
2020/12/02 07:17:12;;;;;;;30.73;19.13;;;7.10;99.90;;;;;;5104849;28;20228;-75
2020/12/02 07:19:41;;;;;;;30.40;20.63;;;7.10;99.90;;;;;;5095190;28;20221;-75
2020/12/02 07:22:14;;;;;;;30.60;19.97;;;7.10;99.90;;;;;;5105354;28;20669;-75
2020/12/02 07:24:45;;;;;;;35.23;21.33;;;7.10;99.90;;;;;;5115694;28;21557;-75
2020/12/02 07:27:11;;;;;;;32.10;21.80;;;7.20;99.90;;;;;;5116155;28;20194;-76
2020/12/02 07:29:41;;;;;;;30.53;20.93;;;7.10;99.90;;;;;;5115537;28;20201;-74
2020/12/02 07:32:13;;;;;;;32.87;20.47;;;7.10;99.90;;;;;;5115066;28;20563;-76
2020/12/02 07:34:40;;;;;;;31.77;20.40;;;7.10;99.90;;;;;;5100963;28;20198;-75
2020/12/02 07:37:10;;;;;;;31.83;20.80;;;7.20;99.90;;;;;;5115464;28;20204;-76
2020/12/02 07:39:46;;;;;;;31.33;21.10;;;7.10;99.90;;;;;;5115160;28;20711;-75
2020/12/02 07:42:18;;;;;;;32.00;20.40;;;7.10;99.90;;;;;;5108376;28;20205;-75
2020/12/02 07:44:48;;;;;;;35.00;22.03;;;7.10;99.90;;;;;;5109133;28;20200;-75
2020/12/02 07:47:17;;;;;;;32.10;21.20;;;7.00;99.90;;;;;;5115257;28;20201;-75
2020/12/02 07:49:54;;;;;;;37.50;22.10;;;7.00;99.90;;;;;;5115126;28;20206;-75
2020/12/02 07:52:24;;;;;;;37.03;21.57;;;7.00;99.90;;;;;;5115475;28;20285;-75
2020/12/02 07:54:54;;;;;;;39.20;22.87;;;7.00;99.90;;;;;;5115176;28;20201;-75
2020/12/02 07:57:23;;;;;;;37.97;23.17;;;7.00;99.90;;;;;;5115007;28;20204;-76
2020/12/02 08:00:12;;;;;;;37.80;23.40;;;7.10;99.90;;;;;;5097769;28;20233;-76
2020/12/02 08:02:42;;;;;;;34.83;23.07;;;7.00;99.90;;;;;;5086370;28;20289;-75
2020/12/02 08:05:32;;;;;;;36.27;21.77;;;7.10;99.90;;;;;;5105215;28;20198;-75
2020/12/02 08:08:01;;;;;;;33.00;21.07;;;7.10;99.90;;;;;;5097474;28;20314;-75
2020/12/02 08:10:31;;;;;;;39.53;21.60;;;7.20;99.90;;;;;;5094893;28;20214;-76
2020/12/02 08:13:01;;;;;;;33.87;20.87;;;7.20;99.90;;;;;;5102905;28;20194;-75
2020/12/02 08:15:28;;;;;;;32.60;20.63;;;7.20;99.90;;;;;;5110729;28;20201;-75
2020/12/02 08:18:11;;;;;;;32.83;21.10;;;7.20;99.90;;;;;;5111695;28;20200;-75
2020/12/02 08:20:38;;;;;;;33.83;22.10;;;7.30;99.90;;;;;;5106759;28;20201;-75
2020/12/02 08:23:09;;;;;;;35.93;21.93;;;7.20;99.90;;;;;;5114717;28;20200;-75
2020/12/02 08:25:39;;;;;;;35.17;22.27;;;7.20;99.90;;;;;;5103636;28;20252;-75
2020/12/02 08:28:14;;;;;;;33.13;20.83;;;7.20;99.90;;;;;;5096908;28;20193;-75
2020/12/02 08:30:41;;;;;;;36.23;23.13;;;7.20;99.90;;;;;;5114650;28;20197;-75
2020/12/02 08:33:10;;;;;;;35.10;23.13;;;7.20;99.90;;;;;;5099449;28;20233;-76
2020/12/02 08:35:40;;;;;;;35.40;22.10;;;7.30;99.90;;;;;;5076214;28;20207;-76
2020/12/02 08:38:12;;;;;;;38.07;22.53;;;7.30;99.90;;;;;;5081644;28;20247;-76
2020/12/02 08:40:43;;;;;;;35.97;22.07;;;7.30;99.90;;;;;;5093150;28;20208;-76
2020/12/02 08:43:25;;;;;;;34.73;22.40;;;7.50;99.90;;;;;;5093087;28;20213;-76
2020/12/02 08:45:54;;;;;;;37.70;21.70;;;7.30;99.90;;;;;;5102760;28;20199;-76
2020/12/02 08:48:20;;;;;;;34.13;22.07;;;7.30;99.90;;;;;;5107823;28;20648;-75
2020/12/02 08:50:47;;;;;;;32.93;21.20;;;7.30;99.90;;;;;;5083187;28;20195;-75
2020/12/02 08:53:20;;;;;;;34.83;21.40;;;7.40;99.90;;;;;;5093769;28;20223;-76
2020/12/02 08:55:47;;;;;;;34.90;22.40;;;7.40;99.90;;;;;;5093250;28;20224;-76
2020/12/02 08:58:17;;;;;;;36.73;21.60;;;7.40;99.90;;;;;;5093548;28;20206;-76
2020/12/02 09:00:43;;;;;;;34.70;20.77;;;7.50;99.90;;;;;;5093529;28;20741;-75
2020/12/02 09:03:09;;;;;;;34.87;22.43;;;7.40;99.90;;;;;;5093313;28;20204;-76
2020/12/02 09:05:36;;;;;;;33.33;19.97;;;7.40;99.90;;;;;;5093012;28;20190;-74
2020/12/02 09:08:02;;;;;;;34.33;21.50;;;7.50;99.90;;;;;;5093062;28;20206;-74
2020/12/02 09:10:32;;;;;;;34.23;21.63;;;7.50;99.90;;;;;;5093498;28;20197;-74
2020/12/02 09:13:00;;;;;;;30.97;20.13;;;7.40;99.90;;;;;;5093528;28;20202;-75
2020/12/02 09:15:27;;;;;;;34.07;21.53;;;7.40;99.90;;;;;;5104638;28;20212;-75
2020/12/02 09:17:56;;;;;;;34.80;20.67;;;7.40;99.90;;;;;;5109696;28;20641;-75
2020/12/02 09:20:23;;;;;;;31.30;20.57;;;7.40;99.90;;;;;;5113800;28;20325;-75
2020/12/02 09:22:50;;;;;;;30.80;19.70;;;7.40;99.90;;;;;;5113828;28;20197;-74
2020/12/02 09:25:17;;;;;;;33.70;21.30;;;7.50;99.90;;;;;;5113876;28;20231;-75
2020/12/02 09:27:44;;;;;;;37.13;21.23;;;7.50;99.90;;;;;;5099286;28;20591;-74
2020/12/02 09:30:12;;;;;;;37.23;22.23;;;7.50;99.90;;;;;;5085218;28;20205;-75
2020/12/02 09:32:38;;;;;;;34.30;21.70;;;7.60;99.90;;;;;;5113301;28;20209;-75
2020/12/02 09:35:07;;;;;;;32.70;20.60;;;7.50;99.90;;;;;;5112954;28;20201;-74
2020/12/02 09:37:34;;;;;;;30.60;20.13;;;7.60;99.90;;;;;;5101933;28;20209;-75
2020/12/02 09:40:01;;;;;;;33.63;21.37;;;7.60;99.90;;;;;;5109941;28;20243;-75
2020/12/02 09:43:01;;;;;;;33.00;21.47;;;7.60;99.90;;;;;;5103840;28;20289;-75
2020/12/02 09:45:36;;;;;;;32.80;21.53;;;7.70;99.90;;;;;;5099000;28;20198;-75
2020/12/02 09:48:10;;;;;;;33.67;22.17;;;7.70;99.90;;;;;;5113025;28;20204;-75
2020/12/02 09:50:37;;;;;;;35.63;22.40;;;7.60;99.90;;;;;;5082578;28;20201;-75
2020/12/02 09:53:15;;;;;;;33.40;21.40;;;7.70;99.90;;;;;;5091858;28;20202;-74
2020/12/02 09:55:41;;;;;;;34.88;21.75;;;7.60;99.90;;;;;;5092831;28;20198;-75
2020/12/02 09:58:10;;;;;;;31.30;20.07;;;7.70;99.90;;;;;;5092052;28;20600;-75
2020/12/02 10:00:37;;;;;;;32.73;21.27;;;7.70;99.90;;;;;;5092332;28;20194;-75
2020/12/02 10:03:45;;;;;;;32.23;22.20;;;7.70;99.90;;;;;;5092148;28;20198;-75
2020/12/02 10:06:44;;;;;;;33.67;21.40;;;7.70;99.90;;;;;;5040595;28;20570;-77
2020/12/02 10:09:31;;;;;;;31.10;21.40;;;7.70;99.90;;;;;;5090744;28;20191;-76
2020/12/02 10:12:06;;;;;;;33.28;22.15;;;7.80;99.90;;;;;;5092288;28;20198;-75
2020/12/02 10:15:08;;;;;;;35.60;22.07;;;7.70;99.90;;;;;;5092333;28;20198;-75
2020/12/02 10:18:00;;;;;;;35.33;21.00;;;7.70;99.90;;;;;;5090075;28;20210;-75
2020/12/02 10:20:41;;;;;;;39.00;23.15;;;8.00;99.90;;;;;;5082023;28;20214;-75
2020/12/02 10:23:27;;;;;;;35.90;20.75;;;7.70;99.90;;;;;;5090038;28;20558;-75
2020/12/02 10:26:17;;;;;;;34.23;20.80;;;7.70;99.90;;;;;;5091947;28;20671;-75
2020/12/02 10:28:54;;;;;;;36.13;21.77;;;7.70;99.90;;;;;;5064254;28;20204;-75
2020/12/02 10:31:30;;;;;;;32.20;21.83;;;7.70;99.90;;;;;;5092132;28;20212;-75
2020/12/02 10:34:06;;;;;;;33.23;21.13;;;7.60;99.90;;;;;;5068678;28;20201;-76
2020/12/02 10:36:36;;;;;;;34.23;20.20;;;7.70;99.90;;;;;;5076603;28;20208;-75
2020/12/02 10:39:08;;;;;;;37.10;22.53;;;7.70;99.90;;;;;;5078022;28;20230;-76
2020/12/02 10:41:49;;;;;;;29.85;21.10;;;7.70;99.90;;;;;;5077779;28;20201;-75
2020/12/02 10:44:40;;;;;;;34.37;22.33;;;7.80;99.90;;;;;;5085175;28;20289;-75
2020/12/02 10:47:26;;;;;;;33.13;21.47;;;7.80;99.90;;;;;;5077282;28;20379;-76
2020/12/02 10:49:55;;;;;;;39.78;21.80;;;7.80;99.90;;;;;;5095155;28;20202;-76
2020/12/02 10:52:22;;;;;;;31.40;21.15;;;7.80;99.90;;;;;;5094875;28;20198;-76
2020/12/02 10:54:50;;;;;;;27.90;20.10;;;7.80;99.90;;;;;;5093669;28;20561;-76
2020/12/02 10:57:20;;;;;;;29.57;20.80;;;7.90;99.90;;;;;;5094030;28;20288;-75
2020/12/02 10:59:50;;;;;;;33.65;20.73;;;7.90;99.90;;;;;;5094813;28;20233;-75
2020/12/02 11:02:27;;;;;;;32.58;22.48;;;7.90;99.90;;;;;;5081206;28;20198;-75
2020/12/02 11:04:58;;;;;;;29.57;20.77;;;7.90;99.90;;;;;;5095468;28;20202;-75
2020/12/02 11:07:32;;;;;;;31.08;20.13;;;7.90;99.90;;;;;;5081244;28;20201;-75
2020/12/02 11:10:03;;;;;;;31.17;21.63;;;8.00;99.90;;;;;;5095489;28;20278;-76
2020/12/02 11:12:59;;;;;;;33.53;21.67;;;8.00;99.90;;;;;;5095750;28;20273;-75
2020/12/02 11:15:58;;;;;;;31.90;19.97;;;7.90;99.90;;;;;;5095680;28;20263;-75
2020/12/02 11:18:47;;;;;;;31.67;21.60;;;8.10;99.90;;;;;;5075019;28;20662;-74
2020/12/02 11:21:24;;;;;;;28.88;18.83;;;7.90;99.90;;;;;;5095025;28;20206;-75
2020/12/02 11:24:23;;;;;;;28.73;19.47;;;8.00;99.90;;;;;;5095604;28;20577;-74
2020/12/02 11:26:49;;;;;;;30.77;19.67;;;8.00;99.90;;;;;;5095473;28;20303;-74
2020/12/02 11:29:18;;;;;;;28.60;19.13;;;8.00;99.90;;;;;;5095322;28;20199;-75
2020/12/02 11:32:08;;;;;;;27.85;18.75;;;8.00;99.90;;;;;;5095000;28;20209;-75
2020/12/02 11:34:46;;;;;;;30.33;19.75;;;8.00;99.90;;;;;;5089822;28;20198;-74
2020/12/02 11:37:20;;;;;;;27.27;19.10;;;8.00;99.90;;;;;;5092230;28;20225;-76
2020/12/02 11:40:02;;;;;;;29.75;20.50;;;8.00;99.90;;;;;;5095034;28;20222;-74
2020/12/02 11:42:38;;;;;;;27.40;19.47;;;8.00;99.90;;;;;;5095071;28;20198;-75
2020/12/02 11:45:12;;;;;;;27.57;18.63;;;8.10;99.90;;;;;;5094352;28;20292;-75
2020/12/02 11:47:50;;;;;;;27.25;19.08;;;8.10;99.90;;;;;;5094978;28;20196;-75
2020/12/02 11:50:24;;;;;;;26.95;18.75;;;8.20;99.90;;;;;;5090737;28;20218;-74
2020/12/02 11:53:05;;;;;;;26.85;18.35;;;8.20;99.90;;;;;;5095017;28;20191;-75
2020/12/02 11:55:33;;;;;;;25.75;17.90;;;8.30;99.90;;;;;;5092067;28;20197;-74
2020/12/02 11:58:01;;;;;;;28.15;18.73;;;8.40;99.90;;;;;;5094330;28;20202;-75
2020/12/02 12:00:28;;;;;;;25.50;18.85;;;8.30;99.90;;;;;;5093666;28;20232;-75
2020/12/02 12:03:30;;;;;;;25.52;18.40;;;8.40;99.90;;;;;;5094880;28;20194;-75
2020/12/02 12:06:05;;;;;;;26.35;18.42;;;8.50;99.90;;;;;;5012273;28;20196;-76
2020/12/02 12:08:47;;;;;;;23.20;17.20;;;8.50;99.90;;;;;;4994945;28;20210;-76
2020/12/02 12:11:23;;;;;;;27.25;17.90;;;8.50;99.90;;;;;;5048045;28;20206;-76
2020/12/02 12:13:56;;;;;;;27.48;18.50;;;8.50;99.90;;;;;;5079796;28;20293;-75
2020/12/02 12:16:37;;;;;;;28.75;20.35;;;8.50;99.90;;;;;;5077757;28;20194;-75
2020/12/02 12:19:11;;;;;;;27.85;19.42;;;8.50;99.90;;;;;;5078238;28;20321;-76
2020/12/02 12:21:45;;;;;;;29.35;18.95;;;8.50;99.90;;;;;;5079504;28;20194;-76
2020/12/02 12:24:14;;;;;;;26.83;20.08;;;8.60;99.90;;;;;;5079650;28;20579;-77
2020/12/02 12:26:43;;;;;;;24.08;18.20;;;8.60;99.90;;;;;;5079314;28;21075;-76
2020/12/02 12:29:10;;;;;;;24.65;18.33;;;8.50;99.90;;;;;;5079522;28;20203;-76
2020/12/02 12:31:44;;;;;;;26.63;20.02;;;8.50;99.90;;;;;;5079577;28;20207;-75
2020/12/02 12:34:23;;;;;;;29.00;19.55;;;8.50;99.90;;;;;;5079499;28;20568;-75
2020/12/02 12:36:56;;;;;;;25.48;19.17;;;8.50;99.90;;;;;;5079902;28;20206;-75
2020/12/02 12:39:28;;;;;;;24.23;17.58;;;8.60;99.90;;;;;;5078864;28;20553;-74
2020/12/02 12:41:54;;;;;;;25.85;18.65;;;8.50;99.90;;;;;;5078160;28;20283;-75
2020/12/02 12:44:26;;;;;;;30.15;19.63;;;8.40;99.90;;;;;;5078552;28;20771;-76
2020/12/02 12:47:10;;;;;;;27.65;18.25;;;8.40;99.90;;;;;;5077641;28;20367;-76
2020/12/02 12:49:39;;;;;;;27.52;19.05;;;8.40;99.90;;;;;;5076460;28;20287;-76
2020/12/02 12:52:06;;;;;;;30.85;19.27;;;8.40;99.90;;;;;;5079963;28;20195;-75
2020/12/02 12:54:34;;;;;;;28.55;19.33;;;8.40;99.90;;;;;;5073317;28;20542;-74
2020/12/02 12:57:02;;;;;;;26.98;19.40;;;8.30;99.90;;;;;;5075977;28;20207;-75
2020/12/02 12:59:32;;;;;;;27.27;19.50;;;8.30;99.90;;;;;;5078410;28;20215;-74